首页
METAR-TAF:

METAR-TAF

机场 :

寧波櫟社國際機場

宁波市, 中华人民共和国

纬度: 29-49-36N, 经度: 121-27-43E, 海拔: 4米

当前天气观测

该预报发布于59分钟前的07:00 UTC
风速4节,风向,在东转东南南转西南之间变化
温度 30°C
湿度 70%
气压 1006 hPa
能见度10公里或以上
阴天层高于3300英尺

METAR: ZSNB 220700Z 17002MPS 120V210 9999 OVC033 30/24 Q1006 BECMG TL0800 33005MPS TSRA

时间: 15:59 (07:59 UTC)

预报

该预报发布于6小时和14分钟前的01:45 UTC
预报有效从22日的 06点(UTC)到 23日的 06点(UTC)
风速8节,风向
能見度: 5000
多云层高于2000英尺
轻雾
成为
从 22日的 07点(UTC)到 22日的 08点(UTC)
风速10节,风向北转西北,有时为19节阵风
短暂存在
从 22日的 07点(UTC)到 22日的 11点(UTC)
多云层高于2000英尺
少量云层高于3000英尺, 积雨云.
阵雨

TAF: ZSNB 220145Z 2206/2306 18004MPS 5000 BR BKN020 TX29/2206Z TN19/2221Z BECMG 2207/2208 34005G10MPS TEMPO 2207/2211 SHRA BKN020 FEW030CB

超过4000个机场的气象观测和天气预报(METAR&TAF报告)。

可查询的气象台以黄色和红色小点在地图上表示。

将鼠标移到小点上方,可查看气象台名称。

然后点击查看天气观测和预报。

如需切换地图:点击带黑十字的绿色按钮放大地图;点击带横线的绿色按钮缩小地图;或者点击绿色箭头查看邻近地区的地图。


METAR-TAF: